Time;durP1;ratioP1;P1;durP2;ratioP2;P2;SDS_P1;SDS_P2;PMS_P1;PMS_P2;Temp;Humidity;BMP_temperature;BMP_pressure;BME280_temperature;BME280_humidity;BME280_pressure;Samples;Min_cycle;Max_cycle;Signal;HPM_P1;HPM_P2
2023/06/28 00:03:49;;;;;;;;;;;29.60;41.70;;;;;;21170966;28;20297;-57
2023/06/28 00:13:49;;;;;;;;;;;29.40;41.90;;;;;;21169973;28;19927;-58
2023/06/28 00:23:50;;;;;;;;;;;29.30;42.60;;;;;;21167493;28;19924;-57
2023/06/28 00:33:50;;;;;;;;;;;29.30;43.40;;;;;;21168232;28;20006;-58
2023/06/28 00:43:51;;;;;;;;;;;29.20;43.60;;;;;;21167339;28;20030;-59
2023/06/28 00:53:52;;;;;;;;;;;29.00;43.60;;;;;;21165576;28;19977;-58
2023/06/28 01:03:53;;;;;;;;;;;28.90;43.70;;;;;;21164931;28;20333;-58
2023/06/28 01:13:54;;;;;;;;;;;28.70;44.00;;;;;;21165631;28;19969;-58
2023/06/28 01:23:55;;;;;;;;;;;28.70;44.20;;;;;;21164420;28;20020;-58
2023/06/28 01:33:55;;;;;;;;;;;28.60;44.40;;;;;;21164276;28;19973;-58
2023/06/28 01:43:56;;;;;;;;;;;28.70;44.40;;;;;;21163828;28;19967;-58
2023/06/28 01:53:57;;;;;;;;;;;28.50;44.80;;;;;;21163515;28;20015;-58
2023/06/28 02:03:57;;;;;;;;;;;28.40;44.90;;;;;;21163241;28;20010;-59
2023/06/28 02:13:58;;;;;;;;;;;28.40;44.80;;;;;;21163011;28;19931;-58
2023/06/28 02:23:58;;;;;;;;;;;28.20;45.20;;;;;;21161894;28;19977;-60
2023/06/28 02:33:59;;;;;;;;;;;28.10;45.30;;;;;;21162152;28;19932;-58
2023/06/28 02:44:00;;;;;;;;;;;27.90;45.90;;;;;;21161677;28;19934;-58
2023/06/28 02:54:00;;;;;;;;;;;27.90;46.00;;;;;;21174682;28;19932;-59
2023/06/28 03:04:02;;;;;;;;;;;27.70;46.20;;;;;;21175422;28;19985;-57
2023/06/28 03:14:02;;;;;;;;;;;27.60;46.20;;;;;;21174765;28;19924;-57
2023/06/28 03:24:03;;;;;;;;;;;27.60;46.50;;;;;;21173468;28;20025;-58
2023/06/28 03:34:04;;;;;;;;;;;27.50;46.80;;;;;;21173154;28;19924;-58
2023/06/28 03:44:04;;;;;;;;;;;27.50;46.80;;;;;;21171029;28;19924;-58
2023/06/28 03:54:06;;;;;;;;;;;27.30;47.30;;;;;;21170633;28;19978;-58
2023/06/28 04:04:06;;;;;;;;;;;27.30;47.00;;;;;;21170768;28;20304;-58
2023/06/28 04:14:07;;;;;;;;;;;27.10;47.60;;;;;;21168580;28;19938;-60
2023/06/28 04:24:08;;;;;;;;;;;27.10;47.80;;;;;;21168129;28;19923;-58
2023/06/28 04:34:08;;;;;;;;;;;26.90;48.00;;;;;;21168254;28;20395;-59
2023/06/28 04:44:09;;;;;;;;;;;26.90;48.20;;;;;;21167690;28;19928;-59
2023/06/28 04:54:10;;;;;;;;;;;26.70;48.80;;;;;;21167139;28;19993;-59
2023/06/28 05:04:10;;;;;;;;;;;26.60;48.90;;;;;;21164823;28;19924;-57
2023/06/28 05:14:11;;;;;;;;;;;26.60;48.90;;;;;;21165287;28;20458;-59
2023/06/28 05:24:12;;;;;;;;;;;26.50;49.20;;;;;;21148832;28;19969;-58
2023/06/28 05:34:12;;;;;;;;;;;26.40;49.20;;;;;;21163402;28;19924;-58
2023/06/28 05:44:15;;;;;;;;;;;26.40;49.30;;;;;;21163709;28;20393;-57
2023/06/28 05:54:15;;;;;;;;;;;26.50;49.60;;;;;;21163450;28;20262;-60
2023/06/28 06:04:16;;;;;;;;;;;26.40;49.90;;;;;;21162757;28;19957;-58
2023/06/28 06:14:16;;;;;;;;;;;26.40;50.10;;;;;;21162045;28;19923;-57
2023/06/28 06:24:17;;;;;;;;;;;26.40;50.30;;;;;;21167777;28;19923;-58
2023/06/28 06:34:18;;;;;;;;;;;26.40;50.10;;;;;;21177141;28;19982;-58
2023/06/28 06:44:18;;;;;;;;;;;26.50;50.50;;;;;;21176798;28;19968;-58
2023/06/28 06:54:19;;;;;;;;;;;26.60;49.80;;;;;;21174507;28;19928;-57
2023/06/28 07:04:23;;;;;;;;;;;26.90;48.60;;;;;;21174726;28;20361;-58
2023/06/28 07:14:24;;;;;;;;;;;27.20;47.30;;;;;;21174511;28;19924;-58
2023/06/28 07:24:24;;;;;;;;;;;27.60;46.20;;;;;;21172795;28;20399;-57
2023/06/28 07:34:25;;;;;;;;;;;28.10;45.20;;;;;;21171850;28;20361;-58
2023/06/28 07:44:26;;;;;;;;;;;28.40;44.20;;;;;;21170511;28;19923;-58
2023/06/28 07:54:27;;;;;;;;;;;28.80;43.40;;;;;;21171174;28;19977;-58
2023/06/28 08:04:27;;;;;;;;;;;29.10;42.70;;;;;;21170305;28;19928;-57
2023/06/28 08:14:28;;;;;;;;;;;29.40;42.00;;;;;;21169851;28;20395;-56
2023/06/28 08:24:29;;;;;;;;;;;29.70;42.50;;;;;;21167042;28;19924;-57
2023/06/28 08:34:29;;;;;;;;;;;29.80;41.00;;;;;;21168031;28;19934;-58
2023/06/28 08:44:31;;;;;;;;;;;30.00;41.10;;;;;;21166407;28;19923;-56
2023/06/28 08:54:32;;;;;;;;;;;30.20;41.90;;;;;;21165937;28;19939;-58
2023/06/28 09:04:33;;;;;;;;;;;30.30;41.60;;;;;;21164803;28;19924;-61
2023/06/28 09:14:34;;;;;;;;;;;30.40;40.40;;;;;;21164193;28;20287;-58
2023/06/28 09:24:35;;;;;;;;;;;30.60;39.20;;;;;;21163155;28;19934;-57
2023/06/28 09:34:37;;;;;;;;;;;30.80;39.60;;;;;;21163291;28;20380;-56
2023/06/28 09:44:38;;;;;;;;;;;31.10;38.20;;;;;;21163254;28;19924;-57
2023/06/28 09:54:44;;;;;;;;;;;31.20;38.60;;;;;;21162173;28;19985;-60
2023/06/28 10:04:45;;;;;;;;;;;31.40;38.10;;;;;;21179697;28;19924;-55
2023/06/28 10:14:58;;;;;;;;;;;31.60;38.20;;;;;;21177644;28;19923;-56
2023/06/28 10:25:01;;;;;;;;;;;32.00;36.60;;;;;;21177211;28;20428;-56
2023/06/28 10:35:02;;;;;;;;;;;32.00;36.50;;;;;;21176942;28;19924;-55
2023/06/28 10:45:03;;;;;;;;;;;32.10;36.30;;;;;;21174506;28;20120;-57
2023/06/28 10:55:04;;;;;;;;;;;32.40;36.00;;;;;;21175529;28;19974;-56
2023/06/28 11:05:04;;;;;;;;;;;32.60;35.30;;;;;;21174519;28;19924;-56
2023/06/28 11:15:06;;;;;;;;;;;33.00;35.00;;;;;;21172839;28;20001;-56
2023/06/28 11:25:06;;;;;;;;;;;32.90;35.20;;;;;;21172593;28;19969;-56
2023/06/28 11:35:09;;;;;;;;;;;33.00;35.00;;;;;;21170888;28;19924;-56
2023/06/28 11:45:10;;;;;;;;;;;33.20;34.50;;;;;;21170555;28;19924;-57
2023/06/28 11:55:13;;;;;;;;;;;33.10;34.40;;;;;;21171353;28;19935;-55
2023/06/28 12:05:15;;;;;;;;;;;33.10;34.40;;;;;;21170990;28;19923;-56
2023/06/28 12:15:21;;;;;;;;;;;33.10;33.80;;;;;;21167918;28;20370;-56
2023/06/28 12:25:26;;;;;;;;;;;33.30;33.90;;;;;;21166120;28;20012;-55
2023/06/28 12:35:27;;;;;;;;;;;33.50;33.50;;;;;;21164902;28;19924;-56
2023/06/28 12:45:27;;;;;;;;;;;33.90;31.20;;;;;;21166711;28;19924;-56
2023/06/28 12:55:28;;;;;;;;;;;34.40;30.50;;;;;;21164556;28;19931;-55
2023/06/28 13:05:28;;;;;;;;;;;34.20;30.60;;;;;;21165048;28;20444;-55
2023/06/28 13:15:29;;;;;;;;;;;34.40;29.00;;;;;;21164448;28;19979;-55
2023/06/28 13:25:30;;;;;;;;;;;34.70;28.50;;;;;;21163590;28;19931;-55
2023/06/28 13:35:30;;;;;;;;;;;34.80;28.80;;;;;;21163283;28;19924;-56
2023/06/28 13:45:31;;;;;;;;;;;34.80;28.50;;;;;;21161496;28;19953;-56
2023/06/28 13:55:31;;;;;;;;;;;35.00;27.80;;;;;;21161487;28;19923;-55
2023/06/28 14:05:32;;;;;;;;;;;35.20;27.10;;;;;;21162608;28;20304;-56
2023/06/28 14:15:33;;;;;;;;;;;35.20;26.40;;;;;;21161669;28;19959;-55
2023/06/28 14:25:33;;;;;;;;;;;35.30;25.90;;;;;;21161567;28;19935;-55
2023/06/28 14:35:34;;;;;;;;;;;35.30;26.00;;;;;;21161924;28;19992;-55
2023/06/28 14:45:35;;;;;;;;;;;35.30;25.50;;;;;;21168269;28;19978;-57
2023/06/28 14:55:35;;;;;;;;;;;35.40;24.80;;;;;;21176128;28;19930;-55
2023/06/28 15:05:36;;;;;;;;;;;35.40;24.80;;;;;;21175523;28;19989;-55
2023/06/28 15:15:37;;;;;;;;;;;35.80;24.00;;;;;;21173137;28;19924;-54
2023/06/28 15:25:37;;;;;;;;;;;35.60;23.80;;;;;;21172585;28;19923;-55
2023/06/28 15:35:38;;;;;;;;;;;35.60;24.50;;;;;;21173000;28;20441;-56
2023/06/28 15:45:38;;;;;;;;;;;35.80;25.40;;;;;;21171709;28;20032;-56
2023/06/28 15:55:40;;;;;;;;;;;35.80;26.30;;;;;;21169907;28;20311;-55
2023/06/28 16:05:41;;;;;;;;;;;35.70;25.90;;;;;;21168728;28;20053;-57
2023/06/28 16:15:41;;;;;;;;;;;35.70;25.00;;;;;;21167479;28;19970;-57
2023/06/28 16:25:42;;;;;;;;;;;35.60;25.10;;;;;;21167013;28;19924;-57
2023/06/28 16:35:43;;;;;;;;;;;35.60;25.10;;;;;;21167843;28;19931;-58
2023/06/28 16:45:44;;;;;;;;;;;35.70;24.90;;;;;;21166809;28;19928;-58
2023/06/28 16:55:44;;;;;;;;;;;35.80;25.30;;;;;;21164929;28;20020;-57
2023/06/28 17:05:46;;;;;;;;;;;35.90;25.10;;;;;;21164297;28;19993;-58
2023/06/28 17:15:47;;;;;;;;;;;35.90;24.60;;;;;;21165179;28;19924;-58
2023/06/28 17:25:47;;;;;;;;;;;35.70;24.40;;;;;;21163382;28;20019;-57
2023/06/28 17:35:50;;;;;;;;;;;35.60;25.30;;;;;;21162025;28;20689;-59
2023/06/28 17:45:50;;;;;;;;;;;35.30;24.70;;;;;;21163583;28;19924;-57
2023/06/28 17:55:51;;;;;;;;;;;35.10;24.80;;;;;;21161611;28;19931;-56
2023/06/28 18:05:52;;;;;;;;;;;34.90;24.60;;;;;;21161487;28;19928;-58
2023/06/28 18:15:52;;;;;;;;;;;34.70;24.90;;;;;;21162177;28;20377;-58
2023/06/28 18:25:53;;;;;;;;;;;34.60;24.50;;;;;;21177578;28;20338;-56
2023/06/28 18:35:54;;;;;;;;;;;34.30;24.10;;;;;;21175851;28;19992;-57
2023/06/28 18:45:55;;;;;;;;;;;34.10;23.30;;;;;;21174962;28;19931;-57
2023/06/28 18:55:55;;;;;;;;;;;33.90;22.70;;;;;;21175937;28;20010;-56
2023/06/28 19:05:56;;;;;;;;;;;33.70;22.00;;;;;;21175108;28;19959;-57
2023/06/28 19:15:57;;;;;;;;;;;33.60;21.30;;;;;;21174609;28;19967;-56
2023/06/28 19:25:57;;;;;;;;;;;33.40;21.70;;;;;;21173494;28;19924;-57
2023/06/28 19:35:58;;;;;;;;;;;33.10;21.80;;;;;;21171711;28;20368;-58
2023/06/28 19:46:00;;;;;;;;;;;33.00;21.90;;;;;;21171756;28;20426;-57
2023/06/28 19:56:01;;;;;;;;;;;32.60;21.90;;;;;;21172002;28;19934;-57
2023/06/28 20:06:02;;;;;;;;;;;32.50;22.30;;;;;;21170671;28;19959;-55
2023/06/28 20:16:03;;;;;;;;;;;32.30;22.80;;;;;;21169058;28;19959;-57
2023/06/28 20:26:03;;;;;;;;;;;32.10;22.90;;;;;;21168635;28;19931;-56
2023/06/28 20:36:04;;;;;;;;;;;31.80;23.30;;;;;;21168402;28;19928;-56
2023/06/28 20:46:05;;;;;;;;;;;31.70;23.70;;;;;;21164878;28;19928;-55
2023/06/28 20:56:08;;;;;;;;;;;31.50;23.90;;;;;;21165890;28;20373;-56
2023/06/28 21:06:08;;;;;;;;;;;31.30;24.30;;;;;;21165130;28;20372;-56
2023/06/28 21:16:09;;;;;;;;;;;31.20;24.70;;;;;;21164382;28;20011;-57
2023/06/28 21:26:10;;;;;;;;;;;31.10;24.80;;;;;;21164262;28;20407;-58
2023/06/28 21:36:11;;;;;;;;;;;30.90;25.20;;;;;;21164617;28;20445;-57
2023/06/28 21:46:11;;;;;;;;;;;30.80;25.20;;;;;;21162628;28;20378;-59
2023/06/28 21:56:12;;;;;;;;;;;30.60;25.90;;;;;;21174644;28;20433;-59
2023/06/28 22:06:13;;;;;;;;;;;30.50;25.50;;;;;;21180815;28;20337;-56
2023/06/28 22:16:14;;;;;;;;;;;30.40;26.00;;;;;;21179356;28;20024;-58
2023/06/28 22:26:17;;;;;;;;;;;30.20;26.40;;;;;;21179011;28;19927;-60
2023/06/28 22:36:17;;;;;;;;;;;30.10;26.70;;;;;;21178976;28;19961;-59
2023/06/28 22:46:18;;;;;;;;;;;30.10;26.90;;;;;;21178320;28;20006;-57
2023/06/28 22:56:18;;;;;;;;;;;30.00;27.90;;;;;;21177476;28;19930;-57
2023/06/28 23:06:20;;;;;;;;;;;30.00;29.20;;;;;;21174124;28;19930;-56
2023/06/28 23:16:23;;;;;;;;;;;30.00;30.10;;;;;;21176005;28;20373;-57
2023/06/28 23:26:27;;;;;;;;;;;29.90;31.10;;;;;;21174001;28;20193;-56
2023/06/28 23:36:29;;;;;;;;;;;29.90;31.00;;;;;;21172891;28;19924;-56
2023/06/28 23:46:31;;;;;;;;;;;29.80;31.70;;;;;;21173267;28;20017;-56
2023/06/28 23:56:31;;;;;;;;;;;29.60;32.30;;;;;;21171264;28;19927;-56
